createdAt,value
2022-10-05T00:00:21.869Z,11.00
2022-10-05T00:02:53.010Z,10.80
2022-10-05T00:05:27.982Z,10.90
2022-10-05T00:07:57.121Z,10.90
2022-10-05T00:10:24.568Z,10.90
2022-10-05T00:12:51.427Z,10.80
2022-10-05T00:15:21.081Z,10.80
2022-10-05T00:17:49.452Z,10.70
2022-10-05T00:20:21.216Z,10.80
2022-10-05T00:22:48.776Z,10.90
2022-10-05T00:25:19.146Z,10.90
2022-10-05T00:27:54.684Z,10.80
2022-10-05T00:30:23.281Z,10.80
2022-10-05T00:32:56.025Z,10.90
2022-10-05T00:35:25.760Z,10.80
2022-10-05T00:37:55.243Z,10.60
2022-10-05T00:40:37.071Z,10.60
2022-10-05T00:43:36.192Z,10.70
2022-10-05T00:46:08.785Z,10.70
2022-10-05T00:48:48.795Z,10.70
2022-10-05T00:51:26.248Z,10.60
2022-10-05T00:54:09.229Z,10.50
2022-10-05T00:56:59.000Z,10.50
2022-10-05T00:59:45.383Z,10.50
2022-10-05T01:02:20.432Z,10.50
2022-10-05T01:04:54.336Z,10.50
2022-10-05T01:07:35.765Z,10.40
2022-10-05T01:10:10.747Z,10.40
2022-10-05T01:12:48.921Z,10.30
2022-10-05T01:15:25.187Z,10.40
2022-10-05T01:17:58.793Z,10.40
2022-10-05T01:20:43.726Z,10.30
2022-10-05T01:23:38.085Z,10.40
2022-10-05T01:26:26.526Z,10.30
2022-10-05T01:29:04.463Z,10.30
2022-10-05T01:31:40.335Z,10.30
2022-10-05T01:34:17.281Z,10.20
2022-10-05T01:36:53.153Z,10.30
2022-10-05T01:39:26.830Z,10.20
2022-10-05T01:42:04.869Z,10.20
2022-10-05T01:44:40.143Z,10.10
2022-10-05T01:47:14.589Z,10.00
2022-10-05T01:49:48.183Z,10.00
2022-10-05T01:52:28.577Z,10.10
2022-10-05T01:55:11.250Z,10.10
2022-10-05T01:57:54.205Z,10.00
2022-10-05T02:00:22.618Z,10.10
2022-10-05T02:02:53.777Z,10.10
2022-10-05T02:05:24.641Z,10.10
2022-10-05T02:07:57.142Z,10.10
2022-10-05T02:10:29.759Z,10.00
2022-10-05T02:13:02.363Z,10.00
2022-10-05T02:15:42.341Z,10.10
2022-10-05T02:18:14.656Z,10.00
2022-10-05T02:20:43.525Z,9.80
2022-10-05T02:23:20.039Z,9.70
2022-10-05T02:25:49.644Z,9.70
2022-10-05T02:28:22.171Z,9.90
2022-10-05T02:30:54.909Z,10.00
2022-10-05T02:33:29.178Z,10.10
2022-10-05T02:36:00.850Z,9.90
2022-10-05T02:38:41.146Z,9.70
2022-10-05T02:41:17.818Z,9.70
2022-10-05T02:43:53.957Z,9.90
2022-10-05T02:46:32.475Z,10.00
2022-10-05T02:49:15.402Z,10.00
2022-10-05T02:51:51.575Z,10.00
2022-10-05T02:54:34.577Z,10.00
2022-10-05T02:57:09.914Z,10.00
2022-10-05T02:59:40.324Z,10.00
2022-10-05T03:02:16.114Z,10.00
2022-10-05T03:04:55.627Z,10.10
2022-10-05T03:07:27.873Z,10.10
2022-10-05T03:10:07.789Z,10.00
2022-10-05T03:12:48.855Z,10.00
2022-10-05T03:15:46.259Z,9.90
2022-10-05T03:18:30.483Z,10.00
2022-10-05T03:21:06.596Z,10.10
2022-10-05T03:23:43.302Z,10.10
2022-10-05T03:26:29.325Z,10.00
2022-10-05T03:29:03.895Z,9.90
2022-10-05T03:31:39.590Z,10.00
2022-10-05T03:34:15.746Z,10.00
2022-10-05T03:36:49.858Z,10.00
2022-10-05T03:39:27.837Z,10.10
2022-10-05T03:42:02.831Z,10.20
2022-10-05T03:44:41.027Z,10.30
2022-10-05T03:47:15.111Z,10.30
2022-10-05T03:50:05.620Z,10.30
2022-10-05T03:52:38.261Z,10.50
2022-10-05T03:55:17.636Z,10.40
2022-10-05T03:57:46.025Z,10.40
2022-10-05T04:00:17.247Z,10.30
2022-10-05T04:02:51.141Z,10.40
2022-10-05T04:05:23.860Z,10.50
2022-10-05T04:07:57.055Z,10.60
2022-10-05T04:10:27.798Z,10.60
2022-10-05T04:13:02.747Z,10.60
2022-10-05T04:15:36.430Z,10.70
2022-10-05T04:18:07.509Z,10.70
2022-10-05T04:20:43.828Z,10.70
2022-10-05T04:23:21.214Z,10.70
2022-10-05T04:25:52.724Z,10.70
2022-10-05T04:28:32.021Z,10.60
2022-10-05T04:31:02.969Z,10.60
2022-10-05T04:33:31.686Z,10.70
2022-10-05T04:36:19.360Z,10.80
2022-10-05T04:39:05.086Z,10.80
2022-10-05T04:41:49.722Z,10.90
2022-10-05T04:44:42.453Z,10.90
2022-10-05T04:47:39.064Z,10.90
2022-10-05T04:50:23.818Z,11.00
2022-10-05T04:53:03.976Z,11.10
2022-10-05T04:55:37.763Z,11.10
2022-10-05T04:58:17.108Z,11.20
2022-10-05T05:00:55.970Z,11.20
2022-10-05T05:03:56.925Z,11.10
2022-10-05T05:06:33.045Z,11.20
2022-10-05T05:09:42.798Z,11.20
2022-10-05T05:12:25.164Z,11.30
2022-10-05T05:15:20.425Z,11.30
2022-10-05T05:18:12.935Z,11.40
2022-10-05T05:20:53.697Z,11.40
2022-10-05T05:23:30.624Z,11.40
2022-10-05T05:26:09.283Z,11.40
2022-10-05T05:28:43.252Z,11.40
2022-10-05T05:31:17.143Z,11.40
2022-10-05T05:33:56.595Z,11.40
2022-10-05T05:36:35.025Z,11.40
2022-10-05T05:39:22.374Z,11.40
2022-10-05T05:42:01.195Z,11.50
2022-10-05T05:44:38.435Z,11.50
2022-10-05T05:47:19.779Z,11.40
2022-10-05T05:50:07.372Z,11.50
2022-10-05T05:52:40.084Z,11.50
2022-10-05T05:55:16.712Z,11.50
2022-10-05T05:57:51.028Z,11.60
2022-10-05T06:00:22.147Z,11.60
2022-10-05T06:02:57.873Z,11.60
2022-10-05T06:05:31.578Z,11.60
2022-10-05T06:08:03.527Z,11.50
2022-10-05T06:10:38.858Z,11.60
2022-10-05T06:13:15.579Z,11.60
2022-10-05T06:15:48.656Z,11.70
2022-10-05T06:18:19.780Z,11.60
2022-10-05T06:20:55.008Z,11.70
2022-10-05T06:23:28.378Z,11.70
2022-10-05T06:26:14.773Z,11.70
2022-10-05T06:28:43.163Z,11.80
2022-10-05T06:31:29.734Z,11.80
2022-10-05T06:34:16.548Z,11.80
2022-10-05T06:36:50.332Z,11.80
2022-10-05T06:39:58.681Z,11.80
2022-10-05T06:42:55.511Z,11.80
2022-10-05T06:45:31.388Z,11.90
2022-10-05T06:48:06.712Z,11.90
2022-10-05T06:50:38.841Z,11.90
2022-10-05T06:53:28.172Z,11.90
2022-10-05T06:56:03.931Z,11.90
2022-10-05T06:58:49.106Z,12.00
2022-10-05T07:01:48.229Z,12.00
2022-10-05T07:04:40.530Z,12.10
2022-10-05T07:07:18.803Z,12.10
2022-10-05T07:10:04.405Z,12.00
2022-10-05T07:12:45.298Z,12.10
2022-10-05T07:15:42.919Z,12.10
2022-10-05T07:18:32.141Z,12.30
2022-10-05T07:21:06.813Z,12.40
2022-10-05T07:23:50.190Z,12.40
2022-10-05T07:26:23.656Z,12.30
2022-10-05T07:29:14.674Z,12.30
2022-10-05T07:31:49.458Z,12.40
2022-10-05T07:34:26.640Z,12.40
2022-10-05T07:37:19.264Z,12.50
2022-10-05T07:40:01.085Z,12.50
2022-10-05T07:42:51.547Z,12.50
2022-10-05T07:45:28.633Z,12.60
2022-10-05T07:47:57.705Z,12.60
2022-10-05T07:50:33.611Z,12.70
2022-10-05T07:53:06.728Z,12.70
2022-10-05T07:55:39.357Z,12.70
2022-10-05T07:58:16.943Z,12.80
2022-10-05T08:01:11.072Z,12.80
2022-10-05T08:03:52.300Z,12.80
2022-10-05T08:06:42.841Z,12.90
2022-10-05T08:09:26.265Z,12.90
2022-10-05T08:12:08.130Z,12.90
2022-10-05T08:14:45.497Z,13.00
2022-10-05T08:17:25.615Z,13.00
2022-10-05T08:20:03.773Z,13.00
2022-10-05T08:22:41.475Z,13.00
2022-10-05T08:25:20.372Z,13.00
2022-10-05T08:27:54.803Z,13.10
2022-10-05T08:30:21.838Z,13.00
2022-10-05T08:32:55.204Z,13.00
2022-10-05T08:35:35.053Z,13.10
2022-10-05T08:38:10.585Z,13.10
2022-10-05T08:41:52.648Z,13.20
2022-10-05T08:45:16.240Z,13.10
2022-10-05T08:48:32.885Z,13.10
2022-10-05T08:51:27.107Z,13.10
2022-10-05T08:54:31.719Z,13.10
2022-10-05T08:57:38.809Z,13.10
2022-10-05T09:00:12.894Z,13.20
2022-10-05T09:03:11.530Z,13.20
2022-10-05T09:06:23.512Z,13.20
2022-10-05T09:09:21.637Z,13.30
2022-10-05T09:12:14.657Z,13.30
2022-10-05T09:15:13.696Z,13.30
2022-10-05T09:18:22.611Z,13.30
2022-10-05T09:20:53.592Z,13.30
2022-10-05T09:23:37.592Z,13.30
2022-10-05T09:26:23.131Z,13.40
2022-10-05T09:29:25.382Z,13.40
2022-10-05T09:32:18.828Z,13.40
2022-10-05T09:35:05.890Z,13.50
2022-10-05T09:38:01.438Z,13.60
2022-10-05T09:41:10.792Z,13.70
2022-10-05T09:44:19.892Z,13.90
2022-10-05T09:47:28.820Z,14.00
2022-10-05T09:50:49.344Z,14.10
2022-10-05T09:53:49.187Z,14.20
2022-10-05T09:56:40.034Z,14.20
2022-10-05T09:59:39.857Z,14.20
2022-10-05T10:02:27.578Z,14.20
2022-10-05T10:05:27.802Z,14.20
2022-10-05T10:08:20.235Z,14.30
2022-10-05T10:11:07.156Z,14.40
2022-10-05T10:14:23.564Z,14.40
2022-10-05T10:17:02.739Z,14.50
2022-10-05T10:20:01.497Z,14.60
2022-10-05T10:23:05.349Z,14.80
2022-10-05T10:26:11.913Z,15.00
2022-10-05T10:29:35.000Z,15.10
2022-10-05T10:32:28.480Z,15.20
2022-10-05T10:35:22.106Z,15.30
2022-10-05T10:38:28.549Z,15.30
2022-10-05T10:41:50.653Z,15.40
2022-10-05T10:45:17.489Z,15.40
2022-10-05T10:47:52.499Z,15.50
2022-10-05T10:50:50.760Z,15.60
2022-10-05T10:54:18.067Z,15.60
2022-10-05T10:56:56.196Z,15.70
2022-10-05T11:00:21.271Z,15.70
2022-10-05T11:03:23.956Z,15.70
2022-10-05T11:06:38.939Z,15.80
2022-10-05T11:09:31.862Z,15.80
2022-10-05T11:12:54.454Z,15.90
2022-10-05T11:19:46.272Z,16.00
2022-10-05T11:22:55.107Z,15.90
2022-10-05T11:26:01.420Z,15.90
2022-10-05T11:28:47.122Z,15.90
2022-10-05T11:31:37.889Z,15.90
2022-10-05T11:34:42.584Z,16.00
2022-10-05T11:37:45.120Z,16.00
2022-10-05T11:40:36.746Z,16.10
2022-10-05T11:43:38.319Z,16.20
2022-10-05T11:46:14.206Z,16.20
2022-10-05T11:49:05.041Z,16.30
2022-10-05T11:51:47.472Z,16.30
2022-10-05T11:54:52.127Z,16.40
2022-10-05T11:57:28.998Z,16.50
2022-10-05T12:00:08.783Z,16.60
2022-10-05T12:03:09.174Z,16.60
2022-10-05T12:05:52.740Z,16.70
2022-10-05T12:08:37.905Z,16.80
2022-10-05T12:11:22.883Z,16.80
2022-10-05T12:13:59.266Z,16.80
2022-10-05T12:16:32.824Z,16.80
2022-10-05T12:19:06.266Z,16.80
2022-10-05T12:21:39.437Z,16.80
2022-10-05T12:24:21.197Z,16.80
2022-10-05T12:26:57.825Z,16.80
2022-10-05T12:29:32.175Z,16.80
2022-10-05T12:32:03.667Z,16.90
2022-10-05T12:34:48.629Z,17.00
2022-10-05T12:37:39.518Z,17.00
2022-10-05T12:40:24.181Z,17.10
2022-10-05T12:43:04.614Z,17.10
2022-10-05T12:45:47.144Z,17.00
2022-10-05T12:48:52.456Z,17.10
2022-10-05T12:51:32.075Z,17.10
2022-10-05T12:54:12.917Z,17.10
2022-10-05T12:56:49.982Z,17.10
2022-10-05T12:59:32.141Z,17.00
2022-10-05T13:02:08.765Z,17.10
2022-10-05T13:04:45.011Z,17.20
2022-10-05T13:08:01.275Z,17.10
2022-10-05T13:10:36.127Z,17.20
2022-10-05T13:13:26.089Z,17.10
2022-10-05T13:16:04.675Z,17.00
2022-10-05T13:18:49.877Z,17.00
2022-10-05T13:21:21.047Z,17.00
2022-10-05T13:23:59.495Z,17.10
2022-10-05T13:26:33.646Z,17.10
2022-10-05T13:29:13.477Z,17.10
2022-10-05T13:31:48.744Z,17.10
2022-10-05T13:34:28.373Z,17.10
2022-10-05T13:37:07.484Z,17.10
2022-10-05T13:39:54.267Z,17.20
2022-10-05T13:42:33.890Z,17.20
2022-10-05T13:45:12.895Z,17.20
2022-10-05T13:47:52.291Z,17.20
2022-10-05T13:50:23.845Z,17.20
2022-10-05T13:53:00.092Z,17.20
2022-10-05T13:55:39.709Z,17.30
2022-10-05T13:58:18.391Z,17.30
2022-10-05T14:00:51.595Z,17.30
2022-10-05T14:03:29.875Z,17.30
2022-10-05T14:05:59.914Z,17.30
2022-10-05T14:08:31.616Z,17.30
2022-10-05T14:10:59.079Z,17.30
2022-10-05T14:13:33.919Z,17.30
2022-10-05T14:16:18.564Z,17.30
2022-10-05T14:18:56.787Z,17.30
2022-10-05T14:21:26.397Z,17.30
2022-10-05T14:23:54.030Z,17.40
2022-10-05T14:26:33.252Z,17.30
2022-10-05T14:29:03.300Z,17.40
2022-10-05T14:31:35.869Z,17.40
2022-10-05T14:34:29.363Z,17.40
2022-10-05T14:37:00.088Z,17.40
2022-10-05T14:39:33.377Z,17.40
2022-10-05T14:42:14.651Z,17.50
2022-10-05T14:44:42.167Z,17.50
2022-10-05T14:47:22.542Z,17.50
2022-10-05T14:50:10.590Z,17.50
2022-10-05T14:52:41.024Z,17.50
2022-10-05T14:56:19.593Z,17.60
2022-10-05T14:59:06.900Z,17.60
2022-10-05T15:01:36.579Z,17.50
2022-10-05T15:04:23.122Z,17.60
2022-10-05T15:07:04.471Z,17.60
2022-10-05T15:09:50.477Z,17.60
2022-10-05T15:12:25.246Z,17.60
2022-10-05T15:15:06.881Z,17.60
2022-10-05T15:17:43.642Z,17.70
2022-10-05T15:20:24.943Z,17.70
2022-10-05T15:23:00.445Z,17.70
2022-10-05T15:25:37.139Z,17.80
2022-10-05T15:28:12.699Z,17.70
2022-10-05T15:30:48.014Z,17.70
2022-10-05T15:33:24.328Z,17.70
2022-10-05T15:36:10.599Z,17.70
2022-10-05T15:39:02.287Z,17.70
2022-10-05T15:41:49.445Z,17.70
2022-10-05T15:44:27.312Z,17.70
2022-10-05T15:46:59.148Z,17.70
2022-10-05T15:49:37.073Z,17.80
2022-10-05T15:52:19.079Z,17.70
2022-10-05T15:55:32.366Z,17.70
2022-10-05T15:58:31.817Z,17.70
2022-10-05T16:01:06.218Z,17.70
2022-10-05T16:03:46.821Z,17.70
2022-10-05T16:06:46.659Z,17.60
2022-10-05T16:09:40.061Z,17.70
2022-10-05T16:12:20.472Z,17.60
2022-10-05T16:15:04.024Z,17.60
2022-10-05T16:17:52.599Z,17.60
2022-10-05T16:20:35.757Z,17.60
2022-10-05T16:23:12.653Z,17.60
2022-10-05T16:25:54.857Z,17.60
2022-10-05T16:28:38.436Z,17.60
2022-10-05T16:31:16.629Z,17.60
2022-10-05T16:33:56.218Z,17.60
2022-10-05T16:36:40.388Z,17.60
2022-10-05T16:39:17.313Z,17.60
2022-10-05T16:41:54.841Z,17.50
2022-10-05T16:44:37.897Z,17.50
2022-10-05T16:47:34.686Z,17.50
2022-10-05T16:50:18.469Z,17.50
2022-10-05T16:52:50.653Z,17.40
2022-10-05T16:55:33.139Z,17.30
2022-10-05T16:58:06.494Z,17.20
2022-10-05T17:00:51.753Z,17.10
2022-10-05T17:03:34.607Z,17.00
2022-10-05T17:06:30.194Z,16.90
2022-10-05T17:09:39.478Z,16.80
2022-10-05T17:12:31.112Z,16.80
2022-10-05T17:15:19.891Z,16.60
2022-10-05T17:18:07.479Z,16.60
2022-10-05T17:20:47.602Z,16.60
2022-10-05T17:23:34.286Z,16.60
2022-10-05T17:26:38.802Z,16.60
2022-10-05T17:29:14.552Z,16.40
2022-10-05T17:32:11.195Z,16.20
2022-10-05T17:34:40.082Z,16.20
2022-10-05T17:37:35.226Z,16.10
2022-10-05T17:40:33.753Z,16.00
2022-10-05T17:43:02.808Z,16.00
2022-10-05T17:45:58.121Z,15.90
2022-10-05T17:49:16.898Z,15.90
2022-10-05T17:52:18.576Z,15.80
2022-10-05T17:55:20.230Z,15.80
2022-10-05T17:57:47.702Z,15.70
2022-10-05T18:00:40.716Z,15.60
2022-10-05T18:03:40.714Z,15.60
2022-10-05T18:06:37.675Z,15.60
2022-10-05T18:09:56.840Z,15.70
2022-10-05T18:12:45.746Z,15.60
2022-10-05T18:15:45.085Z,15.60
2022-10-05T18:19:01.249Z,15.60
2022-10-05T18:21:39.425Z,15.70
2022-10-05T18:24:53.182Z,15.60
2022-10-05T18:27:52.034Z,15.50
2022-10-05T18:30:22.956Z,15.50
2022-10-05T18:33:33.869Z,15.40
2022-10-05T18:36:14.313Z,15.40
2022-10-05T18:38:57.566Z,15.30
2022-10-05T18:41:49.437Z,15.30
2022-10-05T18:44:30.558Z,15.30
2022-10-05T18:47:11.175Z,15.30
2022-10-05T18:50:13.317Z,15.10
2022-10-05T18:52:55.417Z,15.10
2022-10-05T18:55:36.144Z,15.10
2022-10-05T18:58:21.446Z,15.10
2022-10-05T19:01:44.486Z,15.00
2022-10-05T19:04:24.479Z,15.00
2022-10-05T19:07:05.003Z,14.90
2022-10-05T19:09:55.893Z,14.90
2022-10-05T19:12:42.557Z,14.80
2022-10-05T19:15:20.394Z,14.80
2022-10-05T19:18:29.149Z,14.70
2022-10-05T19:21:10.260Z,14.70
2022-10-05T19:24:06.389Z,14.70
2022-10-05T19:26:57.553Z,14.70
2022-10-05T19:29:45.215Z,14.70
2022-10-05T19:32:24.766Z,14.60
2022-10-05T19:35:09.466Z,14.60
2022-10-05T19:37:46.436Z,14.70
2022-10-05T19:40:22.450Z,14.60
2022-10-05T19:43:20.086Z,14.60
2022-10-05T19:46:06.970Z,14.70
2022-10-05T19:48:44.499Z,14.60
2022-10-05T19:51:20.318Z,14.50
2022-10-05T19:53:50.042Z,14.40
2022-10-05T19:56:20.647Z,14.50
2022-10-05T19:58:49.710Z,14.50
2022-10-05T20:01:26.584Z,14.40
2022-10-05T20:03:54.635Z,14.30
2022-10-05T20:06:23.969Z,14.30
2022-10-05T20:08:53.642Z,14.30
2022-10-05T20:11:22.857Z,14.30
2022-10-05T20:14:19.116Z,14.30
2022-10-05T20:17:06.492Z,14.30
2022-10-05T20:20:01.875Z,14.20
2022-10-05T20:22:35.599Z,14.00
2022-10-05T20:25:06.495Z,14.00
2022-10-05T20:27:48.422Z,14.00
2022-10-05T20:30:18.808Z,14.20
2022-10-05T20:32:50.317Z,14.20
2022-10-05T20:35:18.279Z,14.30
2022-10-05T20:37:45.748Z,14.20
2022-10-05T20:40:15.029Z,14.20
2022-10-05T20:42:42.191Z,14.20
2022-10-05T20:45:11.026Z,14.00
2022-10-05T20:47:38.226Z,13.90
2022-10-05T20:50:12.715Z,14.00
2022-10-05T20:52:40.103Z,14.10
2022-10-05T20:55:09.902Z,14.20
2022-10-05T20:57:45.714Z,14.20
2022-10-05T21:00:14.478Z,14.20
2022-10-05T21:02:41.634Z,14.10
2022-10-05T21:05:10.539Z,14.00
2022-10-05T21:07:37.584Z,14.10
2022-10-05T21:10:06.200Z,14.00
2022-10-05T21:12:34.650Z,13.90
2022-10-05T21:15:04.824Z,13.80
2022-10-05T21:17:32.175Z,13.70
2022-10-05T21:20:00.038Z,13.60
2022-10-05T21:22:28.804Z,13.70
2022-10-05T21:24:56.059Z,13.60
2022-10-05T21:27:23.795Z,13.60
2022-10-05T21:29:51.411Z,13.60
2022-10-05T21:32:18.615Z,13.60
2022-10-05T21:34:45.711Z,13.50
2022-10-05T21:37:12.828Z,13.50
2022-10-05T21:39:41.687Z,13.50
2022-10-05T21:42:08.954Z,13.60
2022-10-05T21:44:36.008Z,13.70
2022-10-05T21:47:04.347Z,13.80
2022-10-05T21:49:31.559Z,13.70
2022-10-05T21:52:00.986Z,13.70
2022-10-05T21:54:28.744Z,13.60
2022-10-05T21:56:59.987Z,13.70
2022-10-05T21:59:30.697Z,13.70
2022-10-05T22:01:58.380Z,13.70
2022-10-05T22:04:25.585Z,13.80
2022-10-05T22:06:53.372Z,13.70
2022-10-05T22:09:22.996Z,13.70
2022-10-05T22:11:50.233Z,13.70
2022-10-05T22:14:18.674Z,13.60
2022-10-05T22:16:46.020Z,13.60
2022-10-05T22:19:16.815Z,13.60
2022-10-05T22:21:44.122Z,13.50
2022-10-05T22:24:13.840Z,13.50
2022-10-05T22:26:44.055Z,13.50
2022-10-05T22:29:11.157Z,13.50
2022-10-05T22:31:39.988Z,13.40
2022-10-05T22:34:07.310Z,13.50
2022-10-05T22:36:35.178Z,13.50
2022-10-05T22:39:02.407Z,13.50
2022-10-05T22:41:29.344Z,13.50
2022-10-05T22:43:56.315Z,13.40
2022-10-05T22:46:23.262Z,13.50
2022-10-05T22:48:51.663Z,13.30
2022-10-05T22:51:18.566Z,13.30
2022-10-05T22:53:45.523Z,13.30
2022-10-05T22:56:14.323Z,13.20
2022-10-05T22:58:42.902Z,13.20
2022-10-05T23:01:12.862Z,13.30
2022-10-05T23:03:40.359Z,13.30
2022-10-05T23:06:11.027Z,13.30
2022-10-05T23:08:39.174Z,13.40
2022-10-05T23:11:08.140Z,13.30
2022-10-05T23:13:35.730Z,13.30
2022-10-05T23:16:07.738Z,13.20
2022-10-05T23:18:35.232Z,13.20
2022-10-05T23:21:02.268Z,13.20
2022-10-05T23:23:30.549Z,13.20
2022-10-05T23:26:00.120Z,13.20
2022-10-05T23:28:28.164Z,13.20
2022-10-05T23:30:59.113Z,13.30
2022-10-05T23:33:26.710Z,13.20
2022-10-05T23:36:00.107Z,13.30
2022-10-05T23:38:27.812Z,13.30
2022-10-05T23:40:57.989Z,13.20
2022-10-05T23:43:25.278Z,13.10
2022-10-05T23:45:52.418Z,13.00
2022-10-05T23:48:19.905Z,12.90
2022-10-05T23:50:47.327Z,12.90
2022-10-05T23:53:14.832Z,12.80
2022-10-05T23:55:42.656Z,12.90
2022-10-05T23:58:11.722Z,12.90
